Terminal Aerodrome Forecast
Issued by NWS Charleston, WV

Home | Current Version | Previous Version | Text Only | Print | Product List | Glossary On
Versions: 1 2 3 4 5 6 7 8 9 10 11 12 13 14 15 16 17 18 19 20 21 22 23 24 25 26
972
FTUS41 KRLX 241129 AAB
TAFCRW
TAF AMD
KCRW 241129Z 2411/2512 00000KT 4SM BR SCT001
     FM241300 00000KT P6SM FEW001 SCT200
     FM241500 24005KT P6SM SCT040 SCT150
     FM250900 00000KT 5SM BR SCT040=

USA.gov is the U.S. government's official web portal to all federal, state and local government web resources and services.